sensor_id;sensor_type;location;lat;lon;timestamp;temperature;humidity
31131;DHT22;20292;50.944;4.034;2023-12-07T00:01:01;5.40;99.90
31131;DHT22;20292;50.944;4.034;2023-12-07T00:03:27;5.50;99.90
31131;DHT22;20292;50.944;4.034;2023-12-07T00:05:52;5.50;99.90
31131;DHT22;20292;50.944;4.034;2023-12-07T00:08:18;5.50;99.90
31131;DHT22;20292;50.944;4.034;2023-12-07T00:10:44;5.50;99.90
31131;DHT22;20292;50.944;4.034;2023-12-07T00:13:09;5.50;99.90
31131;DHT22;20292;50.944;4.034;2023-12-07T00:15:35;5.60;99.90
31131;DHT22;20292;50.944;4.034;2023-12-07T00:18:00;5.60;99.90
31131;DHT22;20292;50.944;4.034;2023-12-07T00:20:28;5.70;99.90
31131;DHT22;20292;50.944;4.034;2023-12-07T00:22:54;5.70;99.90
31131;DHT22;20292;50.944;4.034;2023-12-07T00:25:19;5.80;99.90
31131;DHT22;20292;50.944;4.034;2023-12-07T00:27:45;5.80;99.90
31131;DHT22;20292;50.944;4.034;2023-12-07T00:30:11;5.80;99.90
31131;DHT22;20292;50.944;4.034;2023-12-07T00:32:37;5.90;99.90
31131;DHT22;20292;50.944;4.034;2023-12-07T00:35:03;5.90;99.90
31131;DHT22;20292;50.944;4.034;2023-12-07T00:37:29;5.80;99.90
31131;DHT22;20292;50.944;4.034;2023-12-07T00:39:54;5.80;99.90
31131;DHT22;20292;50.944;4.034;2023-12-07T00:42:20;5.80;99.90
31131;DHT22;20292;50.944;4.034;2023-12-07T00:44:46;5.80;99.90
31131;DHT22;20292;50.944;4.034;2023-12-07T00:47:11;5.80;99.90
31131;DHT22;20292;50.944;4.034;2023-12-07T00:49:40;5.90;99.90
31131;DHT22;20292;50.944;4.034;2023-12-07T00:52:06;6.00;99.90
31131;DHT22;20292;50.944;4.034;2023-12-07T00:54:32;5.90;99.90
31131;DHT22;20292;50.944;4.034;2023-12-07T00:56:57;5.90;99.90
31131;DHT22;20292;50.944;4.034;2023-12-07T00:59:23;5.80;99.90
31131;DHT22;20292;50.944;4.034;2023-12-07T01:01:49;5.80;99.90
31131;DHT22;20292;50.944;4.034;2023-12-07T01:04:15;5.70;99.90
31131;DHT22;20292;50.944;4.034;2023-12-07T01:06:41;5.80;99.90
31131;DHT22;20292;50.944;4.034;2023-12-07T01:09:08;5.80;99.90
31131;DHT22;20292;50.944;4.034;2023-12-07T01:11:38;5.90;99.90
31131;DHT22;20292;50.944;4.034;2023-12-07T01:14:05;5.90;99.90
31131;DHT22;20292;50.944;4.034;2023-12-07T01:16:31;5.90;99.90
31131;DHT22;20292;50.944;4.034;2023-12-07T01:18:56;5.90;99.90
31131;DHT22;20292;50.944;4.034;2023-12-07T01:21:23;5.90;99.90
31131;DHT22;20292;50.944;4.034;2023-12-07T01:23:49;5.80;99.90
31131;DHT22;20292;50.944;4.034;2023-12-07T01:26:14;5.90;99.90
31131;DHT22;20292;50.944;4.034;2023-12-07T01:28:40;5.90;99.90
31131;DHT22;20292;50.944;4.034;2023-12-07T01:31:05;5.90;99.90
31131;DHT22;20292;50.944;4.034;2023-12-07T01:33:31;5.90;99.90
31131;DHT22;20292;50.944;4.034;2023-12-07T01:35:56;6.00;99.90
31131;DHT22;20292;50.944;4.034;2023-12-07T01:38:22;6.00;99.90
31131;DHT22;20292;50.944;4.034;2023-12-07T01:40:48;6.10;99.90
31131;DHT22;20292;50.944;4.034;2023-12-07T01:43:14;6.10;99.90
31131;DHT22;20292;50.944;4.034;2023-12-07T01:45:39;6.10;99.90
31131;DHT22;20292;50.944;4.034;2023-12-07T01:48:06;6.00;99.90
31131;DHT22;20292;50.944;4.034;2023-12-07T01:50:33;6.00;99.90
31131;DHT22;20292;50.944;4.034;2023-12-07T01:53:02;6.00;99.90
31131;DHT22;20292;50.944;4.034;2023-12-07T01:55:29;6.20;99.90
31131;DHT22;20292;50.944;4.034;2023-12-07T01:57:57;6.10;99.90
31131;DHT22;20292;50.944;4.034;2023-12-07T02:00:22;6.20;99.90
31131;DHT22;20292;50.944;4.034;2023-12-07T02:02:49;6.20;99.90
31131;DHT22;20292;50.944;4.034;2023-12-07T02:05:16;6.10;99.90
31131;DHT22;20292;50.944;4.034;2023-12-07T02:07:42;6.00;99.90
31131;DHT22;20292;50.944;4.034;2023-12-07T02:10:08;6.10;99.90
31131;DHT22;20292;50.944;4.034;2023-12-07T02:12:34;6.10;99.90
31131;DHT22;20292;50.944;4.034;2023-12-07T02:15:02;6.00;99.90
31131;DHT22;20292;50.944;4.034;2023-12-07T02:23:07;5.90;99.90
31131;DHT22;20292;50.944;4.034;2023-12-07T02:25:53;5.80;99.90
31131;DHT22;20292;50.944;4.034;2023-12-07T02:28:19;5.80;99.90
31131;DHT22;20292;50.944;4.034;2023-12-07T02:30:45;5.80;99.90
31131;DHT22;20292;50.944;4.034;2023-12-07T02:33:11;5.80;99.90
31131;DHT22;20292;50.944;4.034;2023-12-07T02:35:39;5.80;99.90
31131;DHT22;20292;50.944;4.034;2023-12-07T02:38:06;5.90;99.90
31131;DHT22;20292;50.944;4.034;2023-12-07T02:40:32;5.90;99.90
31131;DHT22;20292;50.944;4.034;2023-12-07T02:42:59;5.80;99.90
31131;DHT22;20292;50.944;4.034;2023-12-07T02:45:26;5.80;99.90
31131;DHT22;20292;50.944;4.034;2023-12-07T02:47:52;5.80;99.90
31131;DHT22;20292;50.944;4.034;2023-12-07T02:50:18;5.90;99.90
31131;DHT22;20292;50.944;4.034;2023-12-07T02:52:43;5.90;99.90
31131;DHT22;20292;50.944;4.034;2023-12-07T02:55:09;5.90;99.90
31131;DHT22;20292;50.944;4.034;2023-12-07T02:57:35;5.90;99.90
31131;DHT22;20292;50.944;4.034;2023-12-07T03:00:02;5.90;99.90
31131;DHT22;20292;50.944;4.034;2023-12-07T03:02:38;5.90;99.90
31131;DHT22;20292;50.944;4.034;2023-12-07T03:05:05;6.00;99.90
31131;DHT22;20292;50.944;4.034;2023-12-07T03:07:32;6.10;99.90
31131;DHT22;20292;50.944;4.034;2023-12-07T03:09:58;6.10;99.90
31131;DHT22;20292;50.944;4.034;2023-12-07T03:12:23;6.10;99.90
31131;DHT22;20292;50.944;4.034;2023-12-07T03:14:49;6.10;99.90
31131;DHT22;20292;50.944;4.034;2023-12-07T03:17:15;6.10;99.90
31131;DHT22;20292;50.944;4.034;2023-12-07T03:19:41;6.00;99.90
31131;DHT22;20292;50.944;4.034;2023-12-07T03:22:07;6.10;99.90
31131;DHT22;20292;50.944;4.034;2023-12-07T03:24:36;6.20;99.90
31131;DHT22;20292;50.944;4.034;2023-12-07T03:27:02;6.50;99.90
31131;DHT22;20292;50.944;4.034;2023-12-07T03:29:28;6.30;99.90
31131;DHT22;20292;50.944;4.034;2023-12-07T03:31:54;6.20;99.90
31131;DHT22;20292;50.944;4.034;2023-12-07T03:34:19;6.20;99.90
31131;DHT22;20292;50.944;4.034;2023-12-07T03:36:46;6.30;99.90
31131;DHT22;20292;50.944;4.034;2023-12-07T03:39:13;6.40;99.90
31131;DHT22;20292;50.944;4.034;2023-12-07T03:41:38;6.50;99.90
31131;DHT22;20292;50.944;4.034;2023-12-07T03:44:04;6.50;99.90
31131;DHT22;20292;50.944;4.034;2023-12-07T03:46:30;6.50;99.90
31131;DHT22;20292;50.944;4.034;2023-12-07T03:48:55;6.40;99.90
31131;DHT22;20292;50.944;4.034;2023-12-07T03:51:21;6.50;99.90
31131;DHT22;20292;50.944;4.034;2023-12-07T03:53:46;6.40;99.90
31131;DHT22;20292;50.944;4.034;2023-12-07T03:56:25;6.40;99.90
31131;DHT22;20292;50.944;4.034;2023-12-07T03:58:51;6.30;99.90
31131;DHT22;20292;50.944;4.034;2023-12-07T04:01:17;6.20;99.90
31131;DHT22;20292;50.944;4.034;2023-12-07T04:03:43;6.30;99.90
31131;DHT22;20292;50.944;4.034;2023-12-07T04:06:08;6.40;99.90
31131;DHT22;20292;50.944;4.034;2023-12-07T04:08:34;6.40;99.90
31131;DHT22;20292;50.944;4.034;2023-12-07T04:11:00;6.40;99.90
31131;DHT22;20292;50.944;4.034;2023-12-07T04:13:26;6.40;99.90
31131;DHT22;20292;50.944;4.034;2023-12-07T04:15:51;6.60;99.90
31131;DHT22;20292;50.944;4.034;2023-12-07T04:18:17;6.50;99.90
31131;DHT22;20292;50.944;4.034;2023-12-07T04:20:43;6.40;99.90
31131;DHT22;20292;50.944;4.034;2023-12-07T04:23:08;6.60;99.90
31131;DHT22;20292;50.944;4.034;2023-12-07T04:25:34;6.60;99.90
31131;DHT22;20292;50.944;4.034;2023-12-07T04:27:59;6.70;99.90
31131;DHT22;20292;50.944;4.034;2023-12-07T04:30:25;6.70;99.90
31131;DHT22;20292;50.944;4.034;2023-12-07T04:32:51;6.50;99.90
31131;DHT22;20292;50.944;4.034;2023-12-07T04:35:16;6.60;99.90
31131;DHT22;20292;50.944;4.034;2023-12-07T04:37:42;6.60;99.90
31131;DHT22;20292;50.944;4.034;2023-12-07T04:40:08;6.60;99.90
31131;DHT22;20292;50.944;4.034;2023-12-07T04:42:34;6.50;99.90
31131;DHT22;20292;50.944;4.034;2023-12-07T04:44:59;6.50;99.90
31131;DHT22;20292;50.944;4.034;2023-12-07T04:47:25;6.60;99.90
31131;DHT22;20292;50.944;4.034;2023-12-07T04:49:50;6.60;99.90
31131;DHT22;20292;50.944;4.034;2023-12-07T04:52:16;6.50;99.90
31131;DHT22;20292;50.944;4.034;2023-12-07T04:54:42;6.50;99.90
31131;DHT22;20292;50.944;4.034;2023-12-07T04:57:07;6.50;99.90
31131;DHT22;20292;50.944;4.034;2023-12-07T04:59:34;6.30;99.90
31131;DHT22;20292;50.944;4.034;2023-12-07T05:02:00;6.40;99.90
31131;DHT22;20292;50.944;4.034;2023-12-07T05:04:25;6.20;99.90
31131;DHT22;20292;50.944;4.034;2023-12-07T05:06:51;6.20;99.90
31131;DHT22;20292;50.944;4.034;2023-12-07T05:09:16;6.10;99.90
31131;DHT22;20292;50.944;4.034;2023-12-07T05:11:42;6.10;99.90
31131;DHT22;20292;50.944;4.034;2023-12-07T05:14:10;6.00;99.90
31131;DHT22;20292;50.944;4.034;2023-12-07T05:16:36;6.10;99.90
31131;DHT22;20292;50.944;4.034;2023-12-07T05:19:01;6.20;99.90
31131;DHT22;20292;50.944;4.034;2023-12-07T05:21:28;6.20;99.90
31131;DHT22;20292;50.944;4.034;2023-12-07T05:23:53;6.00;99.90
31131;DHT22;20292;50.944;4.034;2023-12-07T05:26:19;6.00;99.90
31131;DHT22;20292;50.944;4.034;2023-12-07T05:28:44;6.00;99.90
31131;DHT22;20292;50.944;4.034;2023-12-07T05:31:16;6.00;99.90
31131;DHT22;20292;50.944;4.034;2023-12-07T05:33:42;5.90;99.90
31131;DHT22;20292;50.944;4.034;2023-12-07T05:36:07;6.10;99.90
31131;DHT22;20292;50.944;4.034;2023-12-07T05:38:33;6.10;99.90
31131;DHT22;20292;50.944;4.034;2023-12-07T05:40:59;6.00;99.90
31131;DHT22;20292;50.944;4.034;2023-12-07T05:43:24;6.00;99.90
31131;DHT22;20292;50.944;4.034;2023-12-07T05:45:51;5.80;99.90
31131;DHT22;20292;50.944;4.034;2023-12-07T05:48:16;5.90;99.90
31131;DHT22;20292;50.944;4.034;2023-12-07T05:50:42;5.80;99.90
31131;DHT22;20292;50.944;4.034;2023-12-07T05:53:07;5.80;99.90
31131;DHT22;20292;50.944;4.034;2023-12-07T05:55:34;5.70;99.90
31131;DHT22;20292;50.944;4.034;2023-12-07T05:58:00;5.80;99.90
31131;DHT22;20292;50.944;4.034;2023-12-07T06:00:25;5.70;99.90
31131;DHT22;20292;50.944;4.034;2023-12-07T06:02:51;5.80;99.90
31131;DHT22;20292;50.944;4.034;2023-12-07T06:05:17;5.80;99.90
31131;DHT22;20292;50.944;4.034;2023-12-07T06:07:42;5.90;99.90
31131;DHT22;20292;50.944;4.034;2023-12-07T06:10:08;5.90;99.90
31131;DHT22;20292;50.944;4.034;2023-12-07T06:12:34;6.00;99.90
31131;DHT22;20292;50.944;4.034;2023-12-07T06:15:00;6.00;99.90
31131;DHT22;20292;50.944;4.034;2023-12-07T06:17:26;5.90;99.90
31131;DHT22;20292;50.944;4.034;2023-12-07T06:19:51;5.70;99.90
31131;DHT22;20292;50.944;4.034;2023-12-07T06:22:17;5.80;99.90
31131;DHT22;20292;50.944;4.034;2023-12-07T06:24:42;5.80;99.90
31131;DHT22;20292;50.944;4.034;2023-12-07T06:27:08;5.80;99.90
31131;DHT22;20292;50.944;4.034;2023-12-07T06:29:35;5.80;99.90
31131;DHT22;20292;50.944;4.034;2023-12-07T06:32:01;5.70;99.90
31131;DHT22;20292;50.944;4.034;2023-12-07T06:34:26;5.70;99.90
31131;DHT22;20292;50.944;4.034;2023-12-07T06:36:53;5.70;99.90
31131;DHT22;20292;50.944;4.034;2023-12-07T06:39:19;5.80;99.90
31131;DHT22;20292;50.944;4.034;2023-12-07T06:41:44;5.80;99.90
31131;DHT22;20292;50.944;4.034;2023-12-07T06:44:10;5.90;99.90
31131;DHT22;20292;50.944;4.034;2023-12-07T06:46:35;6.00;99.90
31131;DHT22;20292;50.944;4.034;2023-12-07T06:49:01;5.90;99.90
31131;DHT22;20292;50.944;4.034;2023-12-07T06:51:27;6.00;99.90
31131;DHT22;20292;50.944;4.034;2023-12-07T06:53:52;6.10;99.90
31131;DHT22;20292;50.944;4.034;2023-12-07T06:56:18;6.00;99.90
31131;DHT22;20292;50.944;4.034;2023-12-07T06:58:44;6.00;99.90
31131;DHT22;20292;50.944;4.034;2023-12-07T07:01:09;6.00;99.90
31131;DHT22;20292;50.944;4.034;2023-12-07T07:03:35;6.00;99.90
31131;DHT22;20292;50.944;4.034;2023-12-07T07:06:00;6.10;99.90
31131;DHT22;20292;50.944;4.034;2023-12-07T07:08:26;6.10;99.90
31131;DHT22;20292;50.944;4.034;2023-12-07T07:10:52;6.20;99.90
31131;DHT22;20292;50.944;4.034;2023-12-07T07:13:17;6.10;99.90
31131;DHT22;20292;50.944;4.034;2023-12-07T07:15:45;6.10;99.90
31131;DHT22;20292;50.944;4.034;2023-12-07T07:18:11;6.30;99.90
31131;DHT22;20292;50.944;4.034;2023-12-07T07:20:37;6.10;99.90
31131;DHT22;20292;50.944;4.034;2023-12-07T07:23:03;6.00;99.90
31131;DHT22;20292;50.944;4.034;2023-12-07T07:25:28;6.00;99.90
31131;DHT22;20292;50.944;4.034;2023-12-07T07:27:54;5.70;99.90
31131;DHT22;20292;50.944;4.034;2023-12-07T07:30:22;5.60;99.90
31131;DHT22;20292;50.944;4.034;2023-12-07T07:32:48;5.50;99.90
31131;DHT22;20292;50.944;4.034;2023-12-07T07:35:14;5.50;99.90
31131;DHT22;20292;50.944;4.034;2023-12-07T07:37:40;5.20;99.90
31131;DHT22;20292;50.944;4.034;2023-12-07T07:40:07;5.20;99.90
31131;DHT22;20292;50.944;4.034;2023-12-07T07:42:34;5.20;99.90
31131;DHT22;20292;50.944;4.034;2023-12-07T07:44:59;5.30;99.90
31131;DHT22;20292;50.944;4.034;2023-12-07T07:47:25;5.30;99.90
31131;DHT22;20292;50.944;4.034;2023-12-07T07:49:50;5.10;99.90
31131;DHT22;20292;50.944;4.034;2023-12-07T07:52:16;4.80;99.90
31131;DHT22;20292;50.944;4.034;2023-12-07T07:54:42;4.50;99.90
31131;DHT22;20292;50.944;4.034;2023-12-07T07:57:08;4.40;99.90
31131;DHT22;20292;50.944;4.034;2023-12-07T07:59:33;4.60;99.90
31131;DHT22;20292;50.944;4.034;2023-12-07T08:01:59;4.80;99.90
31131;DHT22;20292;50.944;4.034;2023-12-07T08:04:25;4.90;99.90
31131;DHT22;20292;50.944;4.034;2023-12-07T08:06:50;4.80;99.90
31131;DHT22;20292;50.944;4.034;2023-12-07T08:09:16;4.70;99.90
31131;DHT22;20292;50.944;4.034;2023-12-07T08:11:41;4.80;99.90
31131;DHT22;20292;50.944;4.034;2023-12-07T08:14:08;5.00;99.90
31131;DHT22;20292;50.944;4.034;2023-12-07T08:16:34;4.80;99.90
31131;DHT22;20292;50.944;4.034;2023-12-07T08:19:00;4.80;99.90
31131;DHT22;20292;50.944;4.034;2023-12-07T08:21:25;4.90;99.90
31131;DHT22;20292;50.944;4.034;2023-12-07T08:23:51;5.10;99.90
31131;DHT22;20292;50.944;4.034;2023-12-07T08:26:17;5.20;99.90
31131;DHT22;20292;50.944;4.034;2023-12-07T08:28:43;5.40;99.90
31131;DHT22;20292;50.944;4.034;2023-12-07T08:31:10;5.50;99.90
31131;DHT22;20292;50.944;4.034;2023-12-07T08:33:36;5.70;99.90
31131;DHT22;20292;50.944;4.034;2023-12-07T08:36:07;5.90;99.90
31131;DHT22;20292;50.944;4.034;2023-12-07T08:38:33;5.70;99.90
31131;DHT22;20292;50.944;4.034;2023-12-07T08:40:59;5.20;99.90
31131;DHT22;20292;50.944;4.034;2023-12-07T08:43:25;5.00;99.90
31131;DHT22;20292;50.944;4.034;2023-12-07T08:45:51;4.90;99.90
31131;DHT22;20292;50.944;4.034;2023-12-07T08:48:19;5.00;99.90
31131;DHT22;20292;50.944;4.034;2023-12-07T08:50:46;5.20;99.90
31131;DHT22;20292;50.944;4.034;2023-12-07T08:53:11;5.50;99.90
31131;DHT22;20292;50.944;4.034;2023-12-07T08:55:37;5.70;99.90
31131;DHT22;20292;50.944;4.034;2023-12-07T08:58:03;5.90;99.90
31131;DHT22;20292;50.944;4.034;2023-12-07T09:00:32;6.20;99.90
31131;DHT22;20292;50.944;4.034;2023-12-07T09:02:58;6.30;99.90
31131;DHT22;20292;50.944;4.034;2023-12-07T09:05:23;6.50;99.90
31131;DHT22;20292;50.944;4.034;2023-12-07T09:07:49;6.50;99.90
31131;DHT22;20292;50.944;4.034;2023-12-07T09:10:14;6.50;99.90
31131;DHT22;20292;50.944;4.034;2023-12-07T09:12:40;6.50;99.90
31131;DHT22;20292;50.944;4.034;2023-12-07T09:15:07;6.40;99.90
31131;DHT22;20292;50.944;4.034;2023-12-07T09:17:36;6.50;99.90
31131;DHT22;20292;50.944;4.034;2023-12-07T09:20:04;6.40;99.90
31131;DHT22;20292;50.944;4.034;2023-12-07T09:22:30;6.30;99.90
31131;DHT22;20292;50.944;4.034;2023-12-07T09:24:56;6.40;99.90
31131;DHT22;20292;50.944;4.034;2023-12-07T09:27:22;6.40;99.90
31131;DHT22;20292;50.944;4.034;2023-12-07T09:29:48;6.40;99.90
31131;DHT22;20292;50.944;4.034;2023-12-07T09:32:14;6.30;99.90
31131;DHT22;20292;50.944;4.034;2023-12-07T09:34:40;6.40;99.90
31131;DHT22;20292;50.944;4.034;2023-12-07T09:37:09;6.50;99.90
31131;DHT22;20292;50.944;4.034;2023-12-07T09:39:35;6.50;99.90
31131;DHT22;20292;50.944;4.034;2023-12-07T09:42:01;6.50;99.90
31131;DHT22;20292;50.944;4.034;2023-12-07T09:44:27;6.60;99.90
31131;DHT22;20292;50.944;4.034;2023-12-07T09:46:53;6.60;99.90
31131;DHT22;20292;50.944;4.034;2023-12-07T09:49:19;6.60;99.90
31131;DHT22;20292;50.944;4.034;2023-12-07T09:51:46;6.80;99.90
31131;DHT22;20292;50.944;4.034;2023-12-07T09:54:12;6.80;99.90
31131;DHT22;20292;50.944;4.034;2023-12-07T09:56:39;6.90;99.90
31131;DHT22;20292;50.944;4.034;2023-12-07T09:59:05;7.00;99.90
31131;DHT22;20292;50.944;4.034;2023-12-07T10:01:32;7.10;99.90
31131;DHT22;20292;50.944;4.034;2023-12-07T10:04:19;7.10;99.90
31131;DHT22;20292;50.944;4.034;2023-12-07T10:06:46;7.00;99.90
31131;DHT22;20292;50.944;4.034;2023-12-07T10:09:16;6.80;99.90
31131;DHT22;20292;50.944;4.034;2023-12-07T10:11:42;6.90;99.90
31131;DHT22;20292;50.944;4.034;2023-12-07T10:14:09;7.00;99.90
31131;DHT22;20292;50.944;4.034;2023-12-07T10:16:36;7.10;99.90
31131;DHT22;20292;50.944;4.034;2023-12-07T10:19:15;7.20;99.90
31131;DHT22;20292;50.944;4.034;2023-12-07T10:21:50;7.20;99.90
31131;DHT22;20292;50.944;4.034;2023-12-07T10:24:20;7.20;99.90
31131;DHT22;20292;50.944;4.034;2023-12-07T10:26:46;6.90;99.90
31131;DHT22;20292;50.944;4.034;2023-12-07T10:29:12;7.00;99.90
31131;DHT22;20292;50.944;4.034;2023-12-07T10:31:38;7.00;99.90
31131;DHT22;20292;50.944;4.034;2023-12-07T10:34:07;7.00;99.90
31131;DHT22;20292;50.944;4.034;2023-12-07T10:36:33;7.10;99.90
31131;DHT22;20292;50.944;4.034;2023-12-07T10:38:59;7.20;99.90
31131;DHT22;20292;50.944;4.034;2023-12-07T10:41:25;7.20;99.90
31131;DHT22;20292;50.944;4.034;2023-12-07T10:43:59;7.20;99.90
31131;DHT22;20292;50.944;4.034;2023-12-07T10:46:25;7.20;99.90
31131;DHT22;20292;50.944;4.034;2023-12-07T10:48:55;7.40;99.90
31131;DHT22;20292;50.944;4.034;2023-12-07T10:51:51;7.40;99.90
31131;DHT22;20292;50.944;4.034;2023-12-07T10:54:22;7.50;99.90
31131;DHT22;20292;50.944;4.034;2023-12-07T10:56:49;7.60;99.90
31131;DHT22;20292;50.944;4.034;2023-12-07T10:59:16;7.60;99.90
31131;DHT22;20292;50.944;4.034;2023-12-07T11:01:43;7.60;99.90
31131;DHT22;20292;50.944;4.034;2023-12-07T11:04:13;7.60;99.90
31131;DHT22;20292;50.944;4.034;2023-12-07T11:06:40;7.60;99.90
31131;DHT22;20292;50.944;4.034;2023-12-07T11:09:09;7.70;99.90
31131;DHT22;20292;50.944;4.034;2023-12-07T11:11:40;7.60;99.90
31131;DHT22;20292;50.944;4.034;2023-12-07T11:14:09;7.70;99.90
31131;DHT22;20292;50.944;4.034;2023-12-07T11:16:40;7.80;99.90
31131;DHT22;20292;50.944;4.034;2023-12-07T11:22:12;7.80;99.90
31131;DHT22;20292;50.944;4.034;2023-12-07T11:24:54;7.90;99.90
31131;DHT22;20292;50.944;4.034;2023-12-07T11:27:23;8.00;99.90
31131;DHT22;20292;50.944;4.034;2023-12-07T11:29:49;8.00;99.90
31131;DHT22;20292;50.944;4.034;2023-12-07T11:32:15;8.00;99.90
31131;DHT22;20292;50.944;4.034;2023-12-07T11:34:42;8.00;99.90
31131;DHT22;20292;50.944;4.034;2023-12-07T11:37:09;8.00;99.90
31131;DHT22;20292;50.944;4.034;2023-12-07T11:39:41;8.00;99.90
31131;DHT22;20292;50.944;4.034;2023-12-07T11:42:11;8.20;99.90
31131;DHT22;20292;50.944;4.034;2023-12-07T11:44:38;8.00;99.90
31131;DHT22;20292;50.944;4.034;2023-12-07T11:47:04;8.20;99.90
31131;DHT22;20292;50.944;4.034;2023-12-07T11:49:31;8.30;99.90
31131;DHT22;20292;50.944;4.034;2023-12-07T11:51:57;8.40;99.90
31131;DHT22;20292;50.944;4.034;2023-12-07T11:54:23;8.50;99.90
31131;DHT22;20292;50.944;4.034;2023-12-07T11:56:54;8.50;99.90
31131;DHT22;20292;50.944;4.034;2023-12-07T11:59:20;8.50;99.90
31131;DHT22;20292;50.944;4.034;2023-12-07T12:01:49;8.50;99.90
31131;DHT22;20292;50.944;4.034;2023-12-07T12:04:15;8.50;99.90
31131;DHT22;20292;50.944;4.034;2023-12-07T12:06:45;8.60;99.90
31131;DHT22;20292;50.944;4.034;2023-12-07T12:09:14;8.60;99.90
31131;DHT22;20292;50.944;4.034;2023-12-07T12:11:49;8.60;99.90
31131;DHT22;20292;50.944;4.034;2023-12-07T12:14:18;8.70;99.90
31131;DHT22;20292;50.944;4.034;2023-12-07T12:16:48;8.80;99.90
31131;DHT22;20292;50.944;4.034;2023-12-07T12:19:13;8.70;99.90
31131;DHT22;20292;50.944;4.034;2023-12-07T12:21:42;8.70;99.90
31131;DHT22;20292;50.944;4.034;2023-12-07T12:24:09;8.70;99.90
31131;DHT22;20292;50.944;4.034;2023-12-07T12:26:37;8.80;99.90
31131;DHT22;20292;50.944;4.034;2023-12-07T12:29:05;8.60;99.90
31131;DHT22;20292;50.944;4.034;2023-12-07T12:31:31;8.30;99.90
31131;DHT22;20292;50.944;4.034;2023-12-07T12:33:57;8.30;99.90
31131;DHT22;20292;50.944;4.034;2023-12-07T12:36:23;8.30;99.90
31131;DHT22;20292;50.944;4.034;2023-12-07T12:38:52;8.20;99.90
31131;DHT22;20292;50.944;4.034;2023-12-07T12:41:21;8.10;99.90
31131;DHT22;20292;50.944;4.034;2023-12-07T12:43:47;8.40;99.90
31131;DHT22;20292;50.944;4.034;2023-12-07T12:46:14;8.50;99.90
31131;DHT22;20292;50.944;4.034;2023-12-07T12:48:53;8.50;99.90
31131;DHT22;20292;50.944;4.034;2023-12-07T12:51:20;8.50;99.90
31131;DHT22;20292;50.944;4.034;2023-12-07T12:53:47;8.60;99.90
31131;DHT22;20292;50.944;4.034;2023-12-07T12:56:12;8.70;99.90
31131;DHT22;20292;50.944;4.034;2023-12-07T12:58:39;8.80;99.90
31131;DHT22;20292;50.944;4.034;2023-12-07T13:01:04;8.70;99.90
31131;DHT22;20292;50.944;4.034;2023-12-07T13:03:32;8.80;99.90
31131;DHT22;20292;50.944;4.034;2023-12-07T13:05:58;8.70;99.90
31131;DHT22;20292;50.944;4.034;2023-12-07T13:08:23;8.80;99.90
31131;DHT22;20292;50.944;4.034;2023-12-07T13:10:49;8.80;99.90
31131;DHT22;20292;50.944;4.034;2023-12-07T13:13:15;9.00;99.90
31131;DHT22;20292;50.944;4.034;2023-12-07T13:15:41;8.80;99.90
31131;DHT22;20292;50.944;4.034;2023-12-07T13:18:07;8.60;99.90
31131;DHT22;20292;50.944;4.034;2023-12-07T13:20:34;8.70;99.90
31131;DHT22;20292;50.944;4.034;2023-12-07T13:23:00;8.90;99.90
31131;DHT22;20292;50.944;4.034;2023-12-07T13:25:26;8.70;99.90
31131;DHT22;20292;50.944;4.034;2023-12-07T13:27:51;8.70;99.90
31131;DHT22;20292;50.944;4.034;2023-12-07T13:30:18;8.80;99.90
31131;DHT22;20292;50.944;4.034;2023-12-07T13:32:43;8.90;99.90
31131;DHT22;20292;50.944;4.034;2023-12-07T13:35:09;8.90;99.90
31131;DHT22;20292;50.944;4.034;2023-12-07T13:37:35;9.00;99.90
31131;DHT22;20292;50.944;4.034;2023-12-07T13:40:02;9.00;99.90
31131;DHT22;20292;50.944;4.034;2023-12-07T13:42:30;8.90;99.90
31131;DHT22;20292;50.944;4.034;2023-12-07T13:44:57;8.90;99.90
31131;DHT22;20292;50.944;4.034;2023-12-07T13:47:24;8.70;99.90
31131;DHT22;20292;50.944;4.034;2023-12-07T13:49:57;8.70;99.90
31131;DHT22;20292;50.944;4.034;2023-12-07T13:52:24;8.60;99.90
31131;DHT22;20292;50.944;4.034;2023-12-07T13:54:49;8.60;99.90
31131;DHT22;20292;50.944;4.034;2023-12-07T13:57:15;8.30;99.90
31131;DHT22;20292;50.944;4.034;2023-12-07T13:59:41;8.10;99.90
31131;DHT22;20292;50.944;4.034;2023-12-07T14:02:07;8.20;99.90
31131;DHT22;20292;50.944;4.034;2023-12-07T14:04:33;8.30;99.90
31131;DHT22;20292;50.944;4.034;2023-12-07T14:07:16;8.10;99.90
31131;DHT22;20292;50.944;4.034;2023-12-07T14:09:44;8.00;99.90
31131;DHT22;20292;50.944;4.034;2023-12-07T14:12:11;7.80;99.90
31131;DHT22;20292;50.944;4.034;2023-12-07T14:14:39;7.50;99.90
31131;DHT22;20292;50.944;4.034;2023-12-07T14:17:05;7.30;99.90
31131;DHT22;20292;50.944;4.034;2023-12-07T14:19:31;7.10;99.90
31131;DHT22;20292;50.944;4.034;2023-12-07T14:21:56;7.10;99.90
31131;DHT22;20292;50.944;4.034;2023-12-07T14:24:23;6.90;99.90
31131;DHT22;20292;50.944;4.034;2023-12-07T14:26:49;6.80;99.90
31131;DHT22;20292;50.944;4.034;2023-12-07T14:29:14;6.80;99.90
31131;DHT22;20292;50.944;4.034;2023-12-07T14:31:46;6.80;99.90
31131;DHT22;20292;50.944;4.034;2023-12-07T14:34:12;6.70;99.90
31131;DHT22;20292;50.944;4.034;2023-12-07T14:36:39;6.80;99.90
31131;DHT22;20292;50.944;4.034;2023-12-07T14:39:07;6.90;99.90
31131;DHT22;20292;50.944;4.034;2023-12-07T14:41:33;6.70;99.90
31131;DHT22;20292;50.944;4.034;2023-12-07T14:43:59;6.80;99.90
31131;DHT22;20292;50.944;4.034;2023-12-07T14:46:24;6.70;99.90
31131;DHT22;20292;50.944;4.034;2023-12-07T14:48:50;6.60;99.90
31131;DHT22;20292;50.944;4.034;2023-12-07T14:51:19;6.60;99.90
31131;DHT22;20292;50.944;4.034;2023-12-07T14:53:48;6.60;99.90
31131;DHT22;20292;50.944;4.034;2023-12-07T14:56:13;6.60;99.90
31131;DHT22;20292;50.944;4.034;2023-12-07T14:58:39;6.70;99.90
31131;DHT22;20292;50.944;4.034;2023-12-07T15:01:08;6.60;99.90
31131;DHT22;20292;50.944;4.034;2023-12-07T15:03:34;6.50;99.90
31131;DHT22;20292;50.944;4.034;2023-12-07T15:06:00;6.50;99.90
31131;DHT22;20292;50.944;4.034;2023-12-07T15:08:26;6.60;99.90
31131;DHT22;20292;50.944;4.034;2023-12-07T15:10:52;6.60;99.90
31131;DHT22;20292;50.944;4.034;2023-12-07T15:13:20;6.60;99.90
31131;DHT22;20292;50.944;4.034;2023-12-07T15:15:45;6.60;99.90
31131;DHT22;20292;50.944;4.034;2023-12-07T15:18:11;6.50;99.90
31131;DHT22;20292;50.944;4.034;2023-12-07T15:20:37;6.40;99.90
31131;DHT22;20292;50.944;4.034;2023-12-07T15:23:03;6.50;99.90
31131;DHT22;20292;50.944;4.034;2023-12-07T15:25:28;6.50;99.90
31131;DHT22;20292;50.944;4.034;2023-12-07T15:27:57;6.50;99.90
31131;DHT22;20292;50.944;4.034;2023-12-07T15:30:23;6.50;99.90
31131;DHT22;20292;50.944;4.034;2023-12-07T15:32:49;6.50;99.90
31131;DHT22;20292;50.944;4.034;2023-12-07T15:35:16;6.50;99.90
31131;DHT22;20292;50.944;4.034;2023-12-07T15:37:42;6.60;99.90
31131;DHT22;20292;50.944;4.034;2023-12-07T15:40:08;6.60;99.90
31131;DHT22;20292;50.944;4.034;2023-12-07T15:42:38;6.60;99.90
31131;DHT22;20292;50.944;4.034;2023-12-07T15:45:06;6.50;99.90
31131;DHT22;20292;50.944;4.034;2023-12-07T15:47:32;6.50;99.90
31131;DHT22;20292;50.944;4.034;2023-12-07T15:49:58;6.50;99.90